Time;durP1;ratioP1;P1;durP2;ratioP2;P2;SDS_P1;SDS_P2;PMS_P1;PMS_P2;Temp;Humidity;BMP_temperature;BMP_pressure;BME280_temperature;BME280_humidity;BME280_pressure;Samples;Min_cycle;Max_cycle;Signal;HPM_P1;HPM_P2
2022/01/06 00:00:19;;;;;;;;;35.50;33.00;;;;;-149.69;100.00;58464.25;6231690;22;31262;-92
2022/01/06 00:02:44;;;;;;;;;35.00;30.00;;;;;-149.69;100.00;58464.25;6258076;22;30796;-92
2022/01/06 00:05:10;;;;;;;;;29.50;28.25;;;;;-149.69;100.00;58464.25;6255245;22;39246;-92
2022/01/06 00:07:35;;;;;;;;;30.00;28.50;;;;;-149.69;100.00;58464.25;6215913;22;44443;-92
2022/01/06 00:10:01;;;;;;;;;29.75;27.25;;;;;-149.69;100.00;58464.25;6214686;22;44941;-92
2022/01/06 00:12:38;;;;;;;;;27.25;25.25;;;;;-149.69;100.00;58464.25;6238044;22;46258;-91
2022/01/06 00:15:20;;;;;;;;;35.00;27.00;;;;;-149.69;100.00;58464.25;6238269;22;45344;-92
2022/01/06 00:18:40;;;;;;;;;28.75;26.75;;;;;-149.69;100.00;58464.25;6238794;22;45460;-91
2022/01/06 00:25:50;;;;;;;;;30.25;25.75;;;;;-149.69;100.00;58464.25;6240417;22;45347;-93
2022/01/06 00:28:16;;;;;;;;;33.75;29.00;;;;;-149.69;100.00;58464.25;6213669;22;45412;-92
2022/01/06 00:30:41;;;;;;;;;30.75;22.50;;;;;-149.69;100.00;58464.25;6213555;22;45234;-92
2022/01/06 00:33:07;;;;;;;;;36.50;25.50;;;;;-149.69;100.00;58464.25;6240804;22;45488;-92
2022/01/06 00:35:32;;;;;;;;;41.25;30.25;;;;;-149.69;100.00;58464.25;6240161;22;45345;-92
2022/01/06 00:37:58;;;;;;;;;28.75;28.25;;;;;-149.69;100.00;58464.25;6240195;22;45342;-92
2022/01/06 00:40:23;;;;;;;;;33.75;28.00;;;;;-149.69;100.00;58464.25;6239767;22;45391;-92
2022/01/06 00:42:48;;;;;;;;;26.00;23.25;;;;;-149.69;100.00;58464.25;6237833;22;47810;-92
2022/01/06 00:45:14;;;;;;;;;31.50;28.25;;;;;-149.69;100.00;58464.25;6213188;22;45403;-92
2022/01/06 00:47:39;;;;;;;;;35.00;27.50;;;;;-149.69;100.00;58464.25;6238516;22;45383;-92
2022/01/06 00:50:05;;;;;;;;;41.25;30.50;;;;;-149.69;100.00;58464.25;6238803;22;45307;-92
2022/01/06 00:52:31;;;;;;;;;33.25;27.25;;;;;-149.69;100.00;58464.25;6211504;22;47866;-92
2022/01/06 00:54:56;;;;;;;;;31.75;26.50;;;;;-149.69;100.00;58464.25;6238483;22;45378;-93
2022/01/06 00:57:21;;;;;;;;;34.25;28.50;;;;;-149.69;100.00;58464.25;6213513;22;45379;-92
2022/01/06 00:59:47;;;;;;;;;26.75;24.75;;;;;-149.69;100.00;58464.25;6214271;22;45237;-92
2022/01/06 01:02:12;;;;;;;;;25.50;24.50;;;;;-149.69;100.00;58464.25;6213931;22;46883;-93
2022/01/06 01:04:38;;;;;;;;;33.50;30.00;;;;;-149.69;100.00;58464.25;6204069;22;45313;-91
2022/01/06 01:07:03;;;;;;;;;34.75;31.25;;;;;-149.69;100.00;58464.25;6204134;22;45236;-92
2022/01/06 01:09:30;;;;;;;;;30.00;27.50;;;;;-149.69;100.00;58464.25;6213943;22;45238;-92
2022/01/06 01:11:56;;;;;;;;;34.50;29.50;;;;;-149.69;100.00;58464.25;6198366;23;30325;-92
2022/01/06 01:14:30;;;;;;;;;37.75;29.75;;;;;-149.69;100.00;58464.25;6197558;23;28410;-92
2022/01/06 01:16:58;;;;;;;;;30.25;26.25;;;;;-149.69;100.00;58464.25;6200982;22;28468;-92
2022/01/06 01:19:25;;;;;;;;;22.75;22.25;;;;;-149.69;100.00;58464.25;6199591;23;28642;-92
2022/01/06 01:21:51;;;;;;;;;34.25;28.50;;;;;-149.69;100.00;58464.25;6223997;22;30104;-92
2022/01/06 01:24:16;;;;;;;;;29.75;26.00;;;;;-149.69;100.00;58464.25;6224553;22;28457;-92
2022/01/06 01:26:42;;;;;;;;;35.25;30.75;;;;;-149.69;100.00;58464.25;6200755;22;28356;-92
2022/01/06 01:29:15;;;;;;;;;28.00;25.25;;;;;-149.69;100.00;58464.25;6197531;23;28414;-92
2022/01/06 01:31:50;;;;;;;;;32.00;28.00;;;;;-149.69;100.00;58464.25;6224377;22;30067;-92
2022/01/06 01:34:22;;;;;;;;;28.75;27.25;;;;;-149.69;100.00;58464.25;6223615;22;28500;-92
2022/01/06 01:36:48;;;;;;;;;29.75;25.75;;;;;-149.69;100.00;58464.25;6223694;22;28493;-92
2022/01/06 01:39:14;;;;;;;;;23.00;21.50;;;;;-149.69;100.00;58464.25;6200513;22;29689;-92
2022/01/06 01:41:39;;;;;;;;;32.25;26.75;;;;;-149.69;100.00;58464.25;6199134;23;31308;-92
2022/01/06 01:44:12;;;;;;;;;33.50;27.50;;;;;-149.69;100.00;58464.25;6198792;22;28349;-92
2022/01/06 01:46:43;;;;;;;;;29.25;24.75;;;;;-149.69;100.00;58464.25;6198756;23;28469;-92
2022/01/06 01:51:41;;;;;;;;;22.50;21.25;;;;;-149.69;100.00;58464.25;6200197;22;28506;-92
2022/01/06 01:54:06;;;;;;;;;26.50;24.00;;;;;-149.69;100.00;58464.25;6224051;22;29963;-92
2022/01/06 01:56:32;;;;;;;;;23.25;22.25;;;;;-149.69;100.00;58464.25;6198442;23;28295;-91
2022/01/06 01:58:58;;;;;;;;;21.75;19.25;;;;;-149.69;100.00;58464.25;6222498;22;28322;-92
2022/01/06 02:01:23;;;;;;;;;26.00;23.50;;;;;-149.69;100.00;58464.25;6202966;23;30561;-91
2022/01/06 02:03:49;;;;;;;;;25.00;21.25;;;;;-149.69;100.00;58464.25;6223343;22;29616;-91
2022/01/06 02:06:14;;;;;;;;;26.00;21.25;;;;;-149.69;100.00;58464.25;6234181;22;28397;-92
2022/01/06 02:08:40;;;;;;;;;26.50;23.00;;;;;-149.69;100.00;58464.25;6234115;22;28432;-92
2022/01/06 02:11:05;;;;;;;;;28.75;23.25;;;;;-149.69;100.00;58464.25;6234043;22;30666;-92
2022/01/06 02:13:31;;;;;;;;;25.25;22.00;;;;;-149.69;100.00;58464.25;6271950;22;28460;-92
2022/01/06 02:15:59;;;;;;;;;26.25;20.00;;;;;-149.69;100.00;58464.25;6265171;22;27792;-92
2022/01/06 02:18:25;;;;;;;;;24.50;22.75;;;;;-149.69;100.00;58464.25;6264448;22;27880;-92
2022/01/06 02:20:51;;;;;;;;;22.00;22.00;;;;;-149.69;100.00;58464.25;6264502;22;28576;-93
2022/01/06 02:23:18;;;;;;;;;30.25;24.50;;;;;-149.69;100.00;58464.25;6272584;22;27806;-92
2022/01/06 02:25:43;;;;;;;;;27.25;20.75;;;;;-149.69;100.00;58464.25;6234668;22;28302;-91
2022/01/06 02:28:09;;;;;;;;;25.00;21.00;;;;;-149.69;100.00;58464.25;6233531;22;28405;-92
2022/01/06 02:30:36;;;;;;;;;26.75;24.75;;;;;-149.69;100.00;58464.25;6234423;22;30639;-92
2022/01/06 02:33:03;;;;;;;;;22.25;21.00;;;;;-149.69;100.00;58464.25;6233851;22;28753;-92
2022/01/06 02:35:30;;;;;;;;;27.50;23.75;;;;;-149.69;100.00;58464.25;6235004;22;28385;-92
2022/01/06 02:37:56;;;;;;;;;25.50;23.25;;;;;-149.69;100.00;58464.25;6262903;22;28504;-93
2022/01/06 02:40:23;;;;;;;;;24.75;20.75;;;;;-149.69;100.00;58464.25;6260577;22;30140;-92
2022/01/06 02:42:52;;;;;;;;;23.75;19.75;;;;;-149.69;100.00;58464.25;6234007;22;29452;-92
2022/01/06 02:45:19;;;;;;;;;24.00;22.25;;;;;-149.69;100.00;58464.25;6234935;22;27890;-93
2022/01/06 02:47:47;;;;;;;;;26.75;24.00;;;;;-149.69;100.00;58464.25;6233891;22;28416;-92
2022/01/06 02:50:14;;;;;;;;;23.50;21.75;;;;;-149.69;100.00;58464.25;6233903;22;29688;-92
2022/01/06 02:52:39;;;;;;;;;20.75;20.50;;;;;-149.69;100.00;58464.25;6232909;22;28822;-92
2022/01/06 02:55:07;;;;;;;;;28.00;21.25;;;;;-149.69;100.00;58464.25;6260632;22;28459;-92
2022/01/06 02:57:32;;;;;;;;;24.75;22.00;;;;;-149.69;100.00;58464.25;6233753;22;28373;-92
2022/01/06 02:59:57;;;;;;;;;27.50;21.50;;;;;-149.69;100.00;58464.25;6234042;22;30022;-92
2022/01/06 03:02:24;;;;;;;;;26.00;21.75;;;;;-149.69;100.00;58464.25;6233350;22;29318;-92
2022/01/06 03:04:49;;;;;;;;;22.50;18.25;;;;;-149.69;100.00;58464.25;6262708;22;28437;-92
2022/01/06 03:07:15;;;;;;;;;27.25;21.00;;;;;-149.69;100.00;58464.25;6258298;22;30609;-92
2022/01/06 03:09:42;;;;;;;;;25.25;21.25;;;;;-149.69;100.00;58464.25;6241938;22;44841;-92
2022/01/06 03:12:19;;;;;;;;;22.75;21.25;;;;;-149.69;100.00;58464.25;6238217;22;45242;-91
2022/01/06 03:14:44;;;;;;;;;24.75;20.75;;;;;-149.69;100.00;58464.25;6241378;22;45391;-92
2022/01/06 03:17:09;;;;;;;;;25.25;22.25;;;;;-149.69;100.00;58464.25;6221412;22;45261;-92
2022/01/06 03:19:35;;;;;;;;;19.25;18.75;;;;;-149.69;100.00;58464.25;6238475;22;47968;-92
2022/01/06 03:22:00;;;;;;;;;23.50;19.25;;;;;-149.69;100.00;58464.25;6239206;22;45239;-92
2022/01/06 03:24:25;;;;;;;;;20.50;17.75;;;;;-149.69;100.00;58464.25;6214264;22;45256;-92
2022/01/06 03:26:51;;;;;;;;;23.75;18.25;;;;;-149.69;100.00;58464.25;6215600;22;45398;-92
2022/01/06 03:29:16;;;;;;;;;19.50;18.25;;;;;-149.69;100.00;58464.25;6237608;22;46847;-93
2022/01/06 03:31:41;;;;;;;;;22.25;20.00;;;;;-149.69;100.00;58464.25;6238527;22;45305;-93
2022/01/06 03:34:08;;;;;;;;;18.75;16.75;;;;;-149.69;100.00;58464.25;6239261;22;45359;-92
2022/01/06 03:36:34;;;;;;;;;17.25;16.50;;;;;-149.69;100.00;58464.25;6239085;22;45361;-93
2022/01/06 03:38:59;;;;;;;;;22.25;18.00;;;;;-149.69;100.00;58464.25;6213196;22;47989;-93
2022/01/06 03:41:24;;;;;;;;;23.50;19.75;;;;;-149.69;100.00;58464.25;6241097;22;45275;-93
2022/01/06 03:43:50;;;;;;;;;18.00;16.00;;;;;-149.69;100.00;58464.25;6212335;22;45445;-93
2022/01/06 03:46:17;;;;;;;;;18.50;15.50;;;;;-149.69;100.00;58464.25;6239741;22;45196;-93
2022/01/06 03:48:42;;;;;;;;;16.75;14.25;;;;;-149.69;100.00;58464.25;6240731;22;45597;-92
2022/01/06 03:51:07;;;;;;;;;17.75;17.75;;;;;-149.69;100.00;58464.25;6214045;22;47631;-92
2022/01/06 03:53:33;;;;;;;;;20.75;16.50;;;;;-149.69;100.00;58464.25;6214319;22;45350;-93
2022/01/06 03:55:58;;;;;;;;;19.25;16.00;;;;;-149.69;100.00;58464.25;6240275;22;45277;-92
2022/01/06 03:58:24;;;;;;;;;22.00;17.50;;;;;-149.69;100.00;58464.25;6238414;22;47085;-93
2022/01/06 04:04:13;;;;;;;;;22.75;16.00;;;;;-149.69;100.00;58464.25;6227699;22;45213;-92
2022/01/06 04:06:41;;;;;;;;;16.25;13.50;;;;;-149.69;100.00;58464.25;6213236;22;45307;-92
2022/01/06 04:09:07;;;;;;;;;18.25;18.25;;;;;-149.69;100.00;58464.25;6213028;22;48254;-92
2022/01/06 04:11:33;;;;;;;;;18.75;13.75;;;;;-149.69;100.00;58464.25;6212771;22;45392;-92
2022/01/06 04:13:58;;;;;;;;;16.00;13.50;;;;;-149.69;100.00;58464.25;6237201;22;45336;-93
2022/01/06 04:16:25;;;;;;;;;18.25;13.50;;;;;-149.69;100.00;58464.25;6239469;22;45751;-92
2022/01/06 04:18:51;;;;;;;;;17.75;14.25;;;;;-149.69;100.00;58464.25;6239285;22;47971;-92
2022/01/06 04:21:16;;;;;;;;;22.50;17.50;;;;;-149.69;100.00;58464.25;6238160;22;45596;-91
2022/01/06 04:23:42;;;;;;;;;16.50;15.75;;;;;-149.69;100.00;58464.25;6212834;22;45284;-92
2022/01/06 04:26:07;;;;;;;;;18.50;16.75;;;;;-149.69;100.00;58464.25;6241786;22;45355;-91
2022/01/06 04:28:33;;;;;;;;;17.25;15.00;;;;;-149.69;100.00;58464.25;6238801;22;46168;-91
2022/01/06 04:30:58;;;;;;;;;15.25;13.00;;;;;-149.69;100.00;58464.25;6213659;22;45318;-91
2022/01/06 04:33:23;;;;;;;;;16.00;14.00;;;;;-149.69;100.00;58464.25;6242152;22;45687;-91
2022/01/06 04:35:48;;;;;;;;;18.75;15.00;;;;;-149.69;100.00;58464.25;6239685;22;45257;-91
2022/01/06 04:38:14;;;;;;;;;18.25;14.00;;;;;-149.69;100.00;58464.25;6242265;22;46426;-92
2022/01/06 04:40:39;;;;;;;;;15.00;15.00;;;;;-149.69;100.00;58464.25;6214613;22;45387;-91
2022/01/06 04:43:05;;;;;;;;;14.75;13.00;;;;;-149.69;100.00;58464.25;6241153;22;45239;-92
2022/01/06 04:45:31;;;;;;;;;20.00;12.50;;;;;-149.69;100.00;58464.25;6240364;22;45334;-92
2022/01/06 04:47:56;;;;;;;;;16.75;13.25;;;;;-149.69;100.00;58464.25;6214737;22;48370;-91
2022/01/06 04:50:22;;;;;;;;;17.75;14.00;;;;;-149.69;100.00;58464.25;6214668;22;45297;-92
2022/01/06 04:52:47;;;;;;;;;14.25;14.25;;;;;-149.69;100.00;58464.25;6214108;22;45326;-92
2022/01/06 04:55:12;;;;;;;;;15.75;13.00;;;;;-149.69;100.00;58464.25;6239965;22;45406;-92
2022/01/06 04:57:38;;;;;;;;;22.00;16.00;;;;;-149.69;100.00;58464.25;6239282;22;47028;-92
2022/01/06 05:00:05;;;;;;;;;13.50;12.75;;;;;-149.69;100.00;58464.25;6214599;22;45319;-92
2022/01/06 05:02:31;;;;;;;;;16.00;12.50;;;;;-149.69;100.00;58464.25;6213980;22;45251;-92
2022/01/06 05:04:56;;;;;;;;;16.25;14.75;;;;;-149.69;100.00;58464.25;6214404;22;45294;-91
2022/01/06 05:07:22;;;;;;;;;17.00;13.50;;;;;-149.69;100.00;58464.25;6214799;22;47843;-92
2022/01/06 05:09:47;;;;;;;;;22.25;16.00;;;;;-149.69;100.00;58464.25;6215588;22;45574;-92
2022/01/06 05:12:12;;;;;;;;;16.75;12.25;;;;;-149.69;100.00;58464.25;6213942;22;45382;-92
2022/01/06 05:14:39;;;;;;;;;15.25;13.25;;;;;-149.69;100.00;58464.25;6240828;22;45338;-92
2022/01/06 05:17:04;;;;;;;;;13.00;13.00;;;;;-149.69;100.00;58464.25;6240975;22;48032;-92
2022/01/06 05:19:30;;;;;;;;;16.25;13.25;;;;;-149.69;100.00;58464.25;6214717;22;45496;-92
2022/01/06 05:21:55;;;;;;;;;15.25;12.00;;;;;-149.69;100.00;58464.25;6242309;22;45235;-92
2022/01/06 05:24:23;;;;;;;;;16.75;14.25;;;;;-149.69;100.00;58464.25;6247448;22;45373;-92
2022/01/06 05:26:48;;;;;;;;;12.25;12.25;;;;;-149.69;100.00;58464.25;6240792;22;48160;-92
2022/01/06 05:29:14;;;;;;;;;19.75;17.50;;;;;-149.69;100.00;58464.25;6214191;22;45296;-92
2022/01/06 05:31:40;;;;;;;;;18.75;14.75;;;;;-149.69;100.00;58464.25;6215072;22;45338;-90
2022/01/06 05:34:05;;;;;;;;;18.75;14.25;;;;;-149.69;100.00;58464.25;6214880;22;45622;-93
2022/01/06 05:36:32;;;;;;;;;14.75;12.25;;;;;-149.69;100.00;58464.25;6215333;22;48232;-92
2022/01/06 05:38:58;;;;;;;;;17.00;15.50;;;;;-149.69;100.00;58464.25;6214921;22;45437;-93
2022/01/06 05:41:24;;;;;;;;;14.50;14.50;;;;;-149.69;100.00;58464.25;6215147;22;45367;-92
2022/01/06 05:43:49;;;;;;;;;19.00;16.50;;;;;-149.69;100.00;58464.25;6240384;22;45417;-92
2022/01/06 05:46:19;;;;;;;;;18.50;17.25;;;;;-149.69;100.00;58464.25;6215204;22;47387;-92
2022/01/06 05:48:45;;;;;;;;;8.00;7.50;;;;;-149.69;100.00;58464.25;6215676;22;45666;-92
2022/01/06 05:51:12;;;;;;;;;16.00;13.75;;;;;-149.69;100.00;58464.25;6242074;22;45331;-91
2022/01/06 05:53:37;;;;;;;;;20.75;18.00;;;;;-149.69;100.00;58464.25;6215043;22;45390;-92
2022/01/06 05:56:03;;;;;;;;;19.00;15.75;;;;;-149.69;100.00;58464.25;6215050;22;46819;-92
2022/01/06 05:58:29;;;;;;;;;25.00;16.25;;;;;-149.69;100.00;58464.25;6270627;22;44706;-92
2022/01/06 06:00:54;;;;;;;;;18.00;16.50;;;;;-149.69;100.00;58464.25;6245970;22;44695;-90
2022/01/06 06:03:19;;;;;;;;;18.25;14.75;;;;;-149.69;100.00;58464.25;6244830;22;44734;-92
2022/01/06 06:05:45;;;;;;;;;16.75;16.75;;;;;-149.69;100.00;58464.25;6243083;22;47088;-92
2022/01/06 06:08:11;;;;;;;;;21.00;16.75;;;;;-149.69;100.00;58464.25;6215762;22;45370;-92
2022/01/06 06:10:37;;;;;;;;;14.25;12.50;;;;;-149.69;100.00;58464.25;6214900;22;45374;-92
2022/01/06 06:13:03;;;;;;;;;19.00;17.50;;;;;-149.69;100.00;58464.25;6241631;22;45340;-92
2022/01/06 06:15:34;;;;;;;;;20.75;18.25;;;;;-149.69;100.00;58464.25;6239833;22;46833;-91
2022/01/06 06:18:00;;;;;;;;;16.75;16.00;;;;;-149.69;100.00;58464.25;6242354;22;45426;-92
2022/01/06 06:20:25;;;;;;;;;19.50;16.50;;;;;-149.69;100.00;58464.25;6214652;22;45268;-92
2022/01/06 06:22:51;;;;;;;;;16.50;11.25;;;;;-149.69;100.00;58464.25;6214586;22;45306;-91
2022/01/06 06:25:16;;;;;;;;;19.50;17.25;;;;;-149.69;100.00;58464.25;6214104;22;47456;-92
2022/01/06 06:27:41;;;;;;;;;21.00;20.50;;;;;-149.69;100.00;58464.25;6213802;22;45393;-91
2022/01/06 06:30:07;;;;;;;;;20.75;19.50;;;;;-149.69;100.00;58464.25;6241739;22;45545;-93
2022/01/06 06:32:35;;;;;;;;;25.50;22.00;;;;;-149.69;100.00;58464.25;6215264;22;45339;-92
2022/01/06 06:35:00;;;;;;;;;21.25;17.75;;;;;-149.69;100.00;58464.25;6239878;22;47993;-91
2022/01/06 06:37:26;;;;;;;;;23.50;20.25;;;;;-149.69;100.00;58464.25;6240052;22;45216;-91
2022/01/06 06:39:51;;;;;;;;;25.75;18.75;;;;;-149.69;100.00;58464.25;6214850;22;45235;-91
2022/01/06 06:42:16;;;;;;;;;20.75;18.75;;;;;-149.69;100.00;58464.25;6239853;22;45260;-92
2022/01/06 06:44:42;;;;;;;;;24.25;20.75;;;;;-149.69;100.00;58464.25;6239525;22;46881;-92
2022/01/06 06:47:07;;;;;;;;;26.00;20.25;;;;;-149.69;100.00;58464.25;6215154;22;45608;-91
2022/01/06 06:49:32;;;;;;;;;24.75;24.50;;;;;-149.69;100.00;58464.25;6214582;22;45366;-92
2022/01/06 06:51:58;;;;;;;;;24.50;22.00;;;;;-149.69;100.00;58464.25;6239464;22;45580;-91
2022/01/06 06:54:23;;;;;;;;;22.75;19.75;;;;;-149.69;100.00;58464.25;6239837;22;46931;-91
2022/01/06 06:56:48;;;;;;;;;23.50;21.50;;;;;-149.69;100.00;58464.25;6240019;22;45434;-92
2022/01/06 06:59:14;;;;;;;;;33.00;24.50;;;;;-149.69;100.00;58464.25;6214239;22;45393;-92
2022/01/06 07:01:39;;;;;;;;;24.25;22.25;;;;;-149.69;100.00;58464.25;6245025;22;45456;-92
2022/01/06 07:04:04;;;;;;;;;32.00;26.75;;;;;-149.69;100.00;58464.25;6240896;22;45439;-92
2022/01/06 07:06:30;;;;;;;;;36.00;35.75;;;;;-149.69;100.00;58464.25;6215010;22;45353;-92
2022/01/06 07:08:55;;;;;;;;;26.75;25.00;;;;;-149.69;100.00;58464.25;6239660;22;45283;-92
2022/01/06 07:11:22;;;;;;;;;31.75;25.50;;;;;-149.69;100.00;58464.25;6197351;22;45898;-91
2022/01/06 07:13:48;;;;;;;;;25.25;24.25;;;;;-149.69;100.00;58464.25;6231984;22;47910;-90
2022/01/06 07:16:13;;;;;;;;;30.00;24.25;;;;;-149.69;100.00;58464.25;6233926;22;45622;-91
2022/01/06 07:18:38;;;;;;;;;24.50;20.50;;;;;-149.69;100.00;58464.25;6209097;22;45386;-91
2022/01/06 07:21:04;;;;;;;;;23.75;21.00;;;;;-149.69;100.00;58464.25;6233963;22;45474;-91
2022/01/06 07:23:29;;;;;;;;;22.50;21.50;;;;;-149.69;100.00;58464.25;6207718;22;47275;-91
2022/01/06 07:25:54;;;;;;;;;25.75;24.25;;;;;-149.69;100.00;58464.25;6210965;22;45711;-93
2022/01/06 07:28:20;;;;;;;;;22.75;20.50;;;;;-149.69;100.00;58464.25;6211245;22;45303;-96
2022/01/06 07:30:45;;;;;;;;;28.50;23.00;;;;;-149.69;100.00;58464.25;6209114;22;45608;-93
2022/01/06 07:33:10;;;;;;;;;35.00;24.75;;;;;-149.69;100.00;58464.25;6209290;22;46826;-93
2022/01/06 07:35:36;;;;;;;;;27.00;18.25;;;;;-149.69;100.00;58464.25;6211696;22;45524;-95
2022/01/06 07:38:01;;;;;;;;;26.50;22.00;;;;;-149.69;100.00;58464.25;6209324;22;45260;-95
2022/01/06 07:40:26;;;;;;;;;27.75;24.50;;;;;-149.69;100.00;58464.25;6219967;22;44850;-96
2022/01/06 07:42:52;;;;;;;;;6.75;2.00;;;;;-149.69;100.00;58464.25;6227202;22;47204;-96
2022/01/06 07:45:19;;;;;;;;;23.75;20.50;;;;;-149.69;100.00;58464.25;6249676;22;44954;-96
2022/01/06 07:47:59;;;;;;;;;26.50;24.00;;;;;-149.69;100.00;58464.25;6224910;22;44721;-96
2022/01/06 07:50:29;;;;;;;;;24.75;23.50;;;;;-149.69;100.00;58464.25;6222989;22;45265;-96
2022/01/06 07:52:55;;;;;;;;;26.50;22.25;;;;;-149.69;100.00;58464.25;6249838;22;48407;-95
2022/01/06 07:55:20;;;;;;;;;28.00;25.00;;;;;-149.69;100.00;58464.25;6209012;22;45341;-91
2022/01/06 07:57:45;;;;;;;;;29.50;25.00;;;;;-149.69;100.00;58464.25;6232598;22;45754;-90
2022/01/06 08:00:11;;;;;;;;;35.50;31.25;;;;;-149.69;100.00;58464.25;6218408;22;45735;-90
2022/01/06 08:02:37;;;;;;;;;30.75;26.75;;;;;-149.69;100.00;58464.25;6209312;22;47828;-90
2022/01/06 08:05:03;;;;;;;;;32.00;26.00;;;;;-149.69;100.00;58464.25;6217544;22;45248;-90
2022/01/06 08:07:29;;;;;;;;;22.00;20.25;;;;;-149.69;100.00;58464.25;6214560;22;45297;-90
2022/01/06 08:09:54;;;;;;;;;31.25;25.25;;;;;-149.69;100.00;58464.25;6210189;22;45326;-90
2022/01/06 08:12:20;;;;;;;;;24.25;22.75;;;;;-149.69;100.00;58464.25;6220643;22;45482;-90
2022/01/06 08:14:45;;;;;;;;;22.25;20.75;;;;;-149.69;100.00;58464.25;6240025;22;45263;-90
2022/01/06 08:17:10;;;;;;;;;21.50;18.00;;;;;-149.69;100.00;58464.25;6239563;22;45196;-90
2022/01/06 08:19:36;;;;;;;;;20.25;20.00;;;;;-149.69;100.00;58464.25;6239824;22;45244;-90
2022/01/06 08:22:02;;;;;;;;;27.00;22.50;;;;;-149.69;100.00;58464.25;6237075;22;51363;-90
2022/01/06 08:24:27;;;;;;;;;23.50;21.25;;;;;-149.69;100.00;58464.25;6234822;22;45555;-90
2022/01/06 08:26:52;;;;;;;;;26.50;23.50;;;;;-149.69;100.00;58464.25;6239335;22;50353;-90
2022/01/06 08:29:17;;;;;;;;;26.75;22.50;;;;;-149.69;100.00;58464.25;6239696;22;45281;-91
2022/01/06 08:31:43;;;;;;;;;23.75;20.75;;;;;-149.69;100.00;58464.25;6212039;22;48213;-90
2022/01/06 08:34:08;;;;;;;;;25.25;20.50;;;;;-149.69;100.00;58464.25;6240002;22;45136;-90
2022/01/06 08:36:34;;;;;;;;;23.50;21.75;;;;;-149.69;100.00;58464.25;6237216;22;45363;-90
2022/01/06 08:38:59;;;;;;;;;28.50;24.00;;;;;-149.69;100.00;58464.25;6218269;22;45429;-96
2022/01/06 08:41:24;;;;;;;;;25.75;21.00;;;;;-149.69;100.00;58464.25;6244855;22;46817;-96
2022/01/06 08:43:50;;;;;;;;;20.75;20.25;;;;;-149.69;100.00;58464.25;6242963;22;45631;-96
2022/01/06 08:46:15;;;;;;;;;24.50;22.50;;;;;-149.69;100.00;58464.25;6242711;22;46065;-96
2022/01/06 08:48:40;;;;;;;;;31.00;27.00;;;;;-149.69;100.00;58464.25;6243211;22;45215;-96
2022/01/06 08:51:06;;;;;;;;;27.75;21.50;;;;;-149.69;100.00;58464.25;6245088;22;48033;-96
2022/01/06 08:53:31;;;;;;;;;24.50;20.75;;;;;-149.69;100.00;58464.25;6218111;22;45607;-96
2022/01/06 08:55:57;;;;;;;;;26.50;23.00;;;;;-149.69;100.00;58464.25;6218140;22;45307;-96
2022/01/06 08:58:22;;;;;;;;;24.50;23.00;;;;;-149.69;100.00;58464.25;6247327;22;45296;-96
2022/01/06 09:00:48;;;;;;;;;17.75;14.75;;;;;-149.69;100.00;58464.25;6217597;22;47436;-95
2022/01/06 09:03:13;;;;;;;;;25.75;22.00;;;;;-149.69;100.00;58464.25;6216597;22;45889;-95
2022/01/06 09:05:40;;;;;;;;;28.33;24.67;;;;;-149.69;100.00;58464.25;6207781;22;46407;-96
2022/01/06 09:08:05;;;;;;;;;29.25;25.00;;;;;-149.69;100.00;58464.25;6245756;22;45353;-95
2022/01/06 09:10:33;;;;;;;;;30.75;24.00;;;;;-149.69;100.00;58464.25;6241836;22;47308;-96
2022/01/06 09:13:00;;;;;;;;;28.25;21.25;;;;;-149.69;100.00;58464.25;6243207;22;45663;-95
2022/01/06 09:15:26;;;;;;;;;31.25;25.25;;;;;-149.69;100.00;58464.25;6246656;22;45282;-94
2022/01/06 09:17:51;;;;;;;;;27.25;24.50;;;;;-149.69;100.00;58464.25;6243505;22;45410;-95
2022/01/06 09:20:17;;;;;;;;;17.75;16.00;;;;;-149.69;100.00;58464.25;6242751;22;47843;-95
2022/01/06 09:22:43;;;;;;;;;27.00;23.75;;;;;-149.69;100.00;58464.25;6238975;22;45352;-96
2022/01/06 09:25:10;;;;;;;;;26.25;23.75;;;;;-149.69;100.00;58464.25;6243260;22;45195;-96
2022/01/06 09:27:36;;;;;;;;;28.50;21.75;;;;;-149.69;100.00;58464.25;6246323;22;45543;-96
2022/01/06 09:30:01;;;;;;;;;28.00;26.00;;;;;-149.69;100.00;58464.25;6243713;22;47869;-96
2022/01/06 09:32:27;;;;;;;;;38.00;29.50;;;;;-149.69;100.00;58464.25;6245605;22;45553;-96
2022/01/06 09:34:52;;;;;;;;;30.00;27.25;;;;;-149.69;100.00;58464.25;6244560;22;45263;-95
2022/01/06 09:37:18;;;;;;;;;33.25;30.75;;;;;-149.69;100.00;58464.25;6241954;22;45242;-96
2022/01/06 09:39:47;;;;;;;;;33.25;26.75;;;;;-149.69;100.00;58464.25;6245465;22;47264;-96
2022/01/06 09:42:12;;;;;;;;;35.50;27.75;;;;;-149.69;100.00;58464.25;6243036;22;45243;-96
2022/01/06 09:44:39;;;;;;;;;32.50;27.75;;;;;-149.69;100.00;58464.25;6242046;22;45386;-96
2022/01/06 09:47:06;;;;;;;;;32.25;28.00;;;;;-149.69;100.00;58464.25;6242590;22;45319;-96
2022/01/06 09:49:35;;;;;;;;;27.25;20.50;;;;;-149.69;100.00;58464.25;6244444;22;47391;-96
2022/01/06 09:52:00;;;;;;;;;33.25;30.25;;;;;-149.69;100.00;58464.25;6244779;22;45443;-96
2022/01/06 09:54:25;;;;;;;;;36.75;31.50;;;;;-149.69;100.00;58464.25;6243133;22;45542;-96
2022/01/06 09:56:51;;;;;;;;;27.75;24.00;;;;;-149.69;100.00;58464.25;6243925;22;45343;-96
2022/01/06 09:59:16;;;;;;;;;28.00;23.50;;;;;-149.69;100.00;58464.25;6243283;22;48270;-96
2022/01/06 10:01:41;;;;;;;;;24.75;22.00;;;;;-149.69;100.00;58464.25;6243043;22;45493;-96
2022/01/06 10:04:21;;;;;;;;;29.00;26.50;;;;;-149.69;100.00;58464.25;6243395;22;45606;-96
2022/01/06 10:07:05;;;;;;;;;28.50;28.00;;;;;-149.69;100.00;58464.25;6242315;22;45357;-96
2022/01/06 10:09:34;;;;;;;;;31.00;29.00;;;;;-149.69;100.00;58464.25;6217518;22;47500;-96
2022/01/06 10:12:00;;;;;;;;;33.75;32.75;;;;;-149.69;100.00;58464.25;6240481;22;45976;-95
2022/01/06 10:14:39;;;;;;;;;35.00;31.00;;;;;-149.69;100.00;58464.25;6242089;22;45279;-96
2022/01/06 10:17:05;;;;;;;;;32.00;27.25;;;;;-149.69;100.00;58464.25;6241696;22;45859;-95
2022/01/06 10:19:30;;;;;;;;;35.75;31.25;;;;;-149.69;100.00;58464.25;6243601;22;46997;-96
2022/01/06 10:21:59;;;;;;;;;40.75;35.00;;;;;-149.69;100.00;58464.25;6240992;22;45461;-96
2022/01/06 10:24:26;;;;;;;;;37.25;35.75;;;;;-149.69;100.00;58464.25;6240465;22;45357;-95
2022/01/06 10:26:57;;;;;;;;;39.50;34.25;;;;;-149.69;100.00;58464.25;6239719;22;45207;-96
2022/01/06 10:29:29;;;;;;;;;29.25;26.75;;;;;-149.69;100.00;58464.25;6239199;22;48223;-96
2022/01/06 10:32:12;;;;;;;;;36.00;31.00;;;;;-149.69;100.00;58464.25;6240310;22;45654;-96
2022/01/06 10:34:40;;;;;;;;;37.25;32.00;;;;;-149.69;100.00;58464.25;6240504;22;45297;-95
2022/01/06 10:37:16;;;;;;;;;33.75;28.00;;;;;-149.69;100.00;58464.25;6213453;22;45290;-96
2022/01/06 10:39:44;;;;;;;;;32.75;29.00;;;;;-149.69;100.00;58464.25;6239922;22;47515;-96
2022/01/06 10:42:09;;;;;;;;;36.00;33.75;;;;;-149.69;100.00;58464.25;6242804;22;45319;-96
2022/01/06 10:44:56;;;;;;;;;31.25;30.00;;;;;-149.69;100.00;58464.25;6243529;22;45326;-95
2022/01/06 10:47:33;;;;;;;;;30.00;29.00;;;;;-149.69;100.00;58464.25;6240482;22;45689;-95
2022/01/06 10:50:17;;;;;;;;;32.50;28.00;;;;;-149.69;100.00;58464.25;6239380;22;47225;-95
2022/01/06 10:52:48;;;;;;;;;36.00;30.25;;;;;-149.69;100.00;58464.25;6213033;22;45424;-96
2022/01/06 10:55:16;;;;;;;;;29.00;26.75;;;;;-149.69;100.00;58464.25;6214860;22;45245;-96
2022/01/06 10:57:53;;;;;;;;;35.75;28.25;;;;;-149.69;100.00;58464.25;6241067;22;45471;-95
2022/01/06 11:00:22;;;;;;;;;26.00;24.50;;;;;-149.69;100.00;58464.25;6243669;22;47205;-96
2022/01/06 11:02:51;;;;;;;;;30.25;26.00;;;;;-149.69;100.00;58464.25;6252534;22;44973;-96